Time;durP1;ratioP1;P1;durP2;ratioP2;P2;SDS_P1;SDS_P2;PMS_P1;PMS_P2;Temp;Humidity;BMP_temperature;BMP_pressure;BME280_temperature;BME280_humidity;BME280_pressure;Samples;Min_cycle;Max_cycle;Signal;HPM_P1;HPM_P2
2022/06/30 00:01:35;;;;;;;3.17;1.20;;;;;;;22.02;69.92;100904.69;5036339;28;20521;-67
2022/06/30 00:04:03;;;;;;;2.30;1.33;;;;;;;22.00;70.52;100889.66;5036548;28;20447;-66
2022/06/30 00:06:30;;;;;;;1.80;1.57;;;;;;;21.96;71.69;100899.84;5036402;28;20825;-67
2022/06/30 00:08:58;;;;;;;1.93;1.60;;;;;;;21.94;72.20;100896.66;5036375;28;20554;-67
2022/06/30 00:11:24;;;;;;;2.13;1.33;;;;;;;21.86;72.29;100899.31;5036359;28;20574;-67
2022/06/30 00:13:51;;;;;;;1.77;1.27;;;;;;;21.84;73.48;100898.09;5036314;28;20447;-66
2022/06/30 00:16:18;;;;;;;1.47;1.23;;;;;;;21.80;73.66;100895.28;5036102;28;20929;-66
2022/06/30 00:18:46;;;;;;;3.47;2.00;;;;;;;21.74;73.85;100898.72;5035827;28;20482;-67
2022/06/30 00:21:13;;;;;;;2.83;1.70;;;;;;;21.71;74.28;100902.22;5036209;28;20439;-67
2022/06/30 00:23:39;;;;;;;2.40;1.73;;;;;;;21.69;74.38;100901.78;5036178;28;20443;-68
2022/06/30 00:26:07;;;;;;;3.63;1.47;;;;;;;21.63;74.92;100895.78;5036187;28;20466;-67
2022/06/30 00:28:34;;;;;;;2.00;1.70;;;;;;;21.62;75.37;100897.75;5035750;28;20525;-67
2022/06/30 00:31:00;;;;;;;2.43;1.50;;;;;;;21.60;75.86;100910.28;5035907;28;20541;-67
2022/06/30 00:33:27;;;;;;;2.23;1.63;;;;;;;21.62;76.90;100906.03;5035843;28;20482;-67
2022/06/30 00:35:54;;;;;;;2.40;1.70;;;;;;;21.63;76.69;100906.81;5035487;28;20447;-66
2022/06/30 00:38:20;;;;;;;1.93;1.43;;;;;;;21.62;76.61;100905.22;5035870;28;20473;-67
2022/06/30 00:40:47;;;;;;;4.70;1.80;;;;;;;21.62;76.56;100905.22;5035792;28;20446;-68
2022/06/30 00:43:15;;;;;;;1.90;1.40;;;;;;;21.61;76.74;100895.38;5035938;28;20541;-68
2022/06/30 00:45:43;;;;;;;2.30;1.63;;;;;;;21.64;76.91;100894.59;5035769;28;20538;-68
2022/06/30 00:48:10;;;;;;;3.10;1.30;;;;;;;21.69;76.67;100891.53;5035806;28;20471;-68
2022/06/30 00:50:37;;;;;;;2.73;1.83;;;;;;;21.70;76.50;100884.88;5035817;28;20438;-68
2022/06/30 00:53:04;;;;;;;2.27;1.43;;;;;;;21.70;77.16;100887.63;5035746;28;20478;-68
2022/06/30 00:55:31;;;;;;;3.40;1.50;;;;;;;21.70;76.96;100884.09;5035726;28;20539;-68
2022/06/30 00:58:01;;;;;;;3.67;1.97;;;;;;;21.69;77.46;100876.97;5035583;28;20546;-68
2022/06/30 01:00:30;;;;;;;2.10;1.50;;;;;;;21.68;76.57;100878.91;5035119;28;20449;-70
2022/06/30 01:02:58;;;;;;;4.20;1.87;;;;;;;21.66;77.64;100881.28;5035554;28;20442;-68
2022/06/30 01:05:26;;;;;;;2.30;2.10;;;;;;;21.61;77.70;100878.81;5035473;28;20439;-68
2022/06/30 01:07:53;;;;;;;1.70;1.30;;;;;;;21.55;78.45;100880.28;5035204;28;20450;-68
2022/06/30 01:13:04;;;;;;;2.80;1.93;;;;;;;21.41;79.13;100884.38;5035074;28;20461;-68
2022/06/30 01:15:32;;;;;;;3.07;1.90;;;;;;;21.39;79.08;100875.69;5035388;28;20586;-69
2022/06/30 01:17:59;;;;;;;2.07;1.77;;;;;;;21.43;79.40;100892.31;5034738;28;21003;-67
2022/06/30 01:20:28;;;;;;;1.97;1.50;;;;;;;21.45;79.72;100880.91;5034913;28;20514;-67
2022/06/30 01:22:56;;;;;;;2.63;2.10;;;;;;;21.46;79.28;100885.25;5034675;28;20538;-66
2022/06/30 01:25:24;;;;;;;2.80;1.60;;;;;;;21.51;79.68;100882.19;5035099;28;20534;-67
2022/06/30 01:27:50;;;;;;;3.70;1.90;;;;;;;21.53;79.51;100885.38;5034810;28;20449;-66
2022/06/30 01:30:17;;;;;;;3.03;1.90;;;;;;;21.54;79.04;100885.00;5035043;28;20450;-67
2022/06/30 01:32:44;;;;;;;6.10;2.27;;;;;;;21.51;79.23;100885.72;5034477;28;21026;-67
2022/06/30 01:35:11;;;;;;;4.00;1.70;;;;;;;21.52;79.50;100881.03;5035004;28;20447;-68
2022/06/30 01:37:50;;;;;;;6.33;1.77;;;;;;;21.48;79.38;100875.47;5034502;28;20809;-68
2022/06/30 01:40:20;;;;;;;2.37;1.80;;;;;;;21.42;78.88;100874.94;5034470;28;20951;-68
2022/06/30 01:42:47;;;;;;;3.50;2.03;;;;;;;21.50;79.13;100872.31;5034670;28;20439;-68
2022/06/30 01:45:14;;;;;;;3.63;1.80;;;;;;;21.50;79.71;100878.63;5034631;28;20505;-66
2022/06/30 01:47:41;;;;;;;2.87;1.93;;;;;;;21.50;79.92;100873.13;5034477;28;20866;-67
2022/06/30 01:50:13;;;;;;;2.70;1.83;;;;;;;21.55;79.70;100880.28;5034585;28;20519;-66
2022/06/30 01:52:39;;;;;;;3.10;1.60;;;;;;;21.56;79.34;100881.88;5034527;28;20464;-67
2022/06/30 01:55:07;;;;;;;2.50;1.60;;;;;;;21.49;77.84;100877.03;5034394;28;20443;-67
2022/06/30 01:57:35;;;;;;;2.20;1.73;;;;;;;21.37;77.51;100872.50;5034326;28;20470;-67
2022/06/30 02:00:03;;;;;;;2.63;2.27;;;;;;;21.40;78.00;100873.75;5034274;28;20953;-66
2022/06/30 02:02:30;;;;;;;3.80;2.30;;;;;;;21.44;79.48;100871.06;5034270;28;20497;-68
2022/06/30 02:04:56;;;;;;;2.07;1.67;;;;;;;21.48;79.46;100871.91;5034264;28;20458;-67
2022/06/30 02:07:24;;;;;;;2.80;1.67;;;;;;;21.49;79.33;100870.75;5034311;28;20446;-67
2022/06/30 02:09:51;;;;;;;2.33;1.80;;;;;;;21.51;79.88;100860.91;5034054;28;20463;-65
2022/06/30 02:15:06;;;;;;;3.47;1.60;;;;;;;21.54;79.24;100862.16;5034088;28;20486;-67
2022/06/30 02:17:32;;;;;;;2.20;1.70;;;;;;;21.52;79.47;100850.72;5034034;28;20478;-67
2022/06/30 02:20:00;;;;;;;4.47;2.07;;;;;;;21.52;79.83;100847.97;5033566;28;20521;-65
2022/06/30 02:22:27;;;;;;;2.83;1.57;;;;;;;21.51;79.43;100851.84;5033864;28;20961;-67
2022/06/30 02:24:53;;;;;;;2.90;1.30;;;;;;;21.54;79.26;100843.66;5033967;28;20431;-66
2022/06/30 02:27:23;;;;;;;2.63;1.80;;;;;;;21.56;79.47;100843.28;5033995;28;20884;-67
2022/06/30 02:29:50;;;;;;;1.70;1.60;;;;;;;21.55;79.29;100848.00;5033507;28;20467;-67
2022/06/30 02:32:17;;;;;;;4.27;2.30;;;;;;;21.54;79.33;100843.66;5033690;28;20576;-66
2022/06/30 02:34:44;;;;;;;1.57;1.43;;;;;;;21.56;79.27;100840.50;5033715;28;20878;-68
2022/06/30 02:37:11;;;;;;;1.93;1.77;;;;;;;21.59;79.11;100839.78;5033672;28;20534;-67
2022/06/30 02:39:37;;;;;;;3.10;2.10;;;;;;;21.59;78.96;100837.03;5033676;28;20521;-67
2022/06/30 02:42:04;;;;;;;1.97;1.70;;;;;;;21.59;78.70;100843.34;5033594;28;20440;-67
2022/06/30 02:44:31;;;;;;;3.30;1.93;;;;;;;21.61;79.09;100843.78;5033587;28;20449;-67
2022/06/30 02:46:58;;;;;;;2.80;2.23;;;;;;;21.64;79.81;100843.00;5033283;28;21021;-67
2022/06/30 02:49:25;;;;;;;1.90;1.53;;;;;;;21.66;78.82;100843.47;5033400;28;20489;-67
2022/06/30 02:51:52;;;;;;;2.23;1.93;;;;;;;21.68;78.93;100843.06;5033433;28;20505;-66
2022/06/30 02:54:19;;;;;;;3.00;1.80;;;;;;;21.62;78.86;100837.09;5033461;28;20467;-66
2022/06/30 02:56:47;;;;;;;11.53;3.03;;;;;;;21.62;79.76;100839.06;5033238;28;20474;-67
2022/06/30 02:59:14;;;;;;;1.77;1.53;;;;;;;21.61;79.17;100834.72;5033114;28;20463;-67
2022/06/30 03:01:41;;;;;;;3.20;2.13;;;;;;;21.65;79.06;100836.34;5033007;28;20944;-67
2022/06/30 03:04:08;;;;;;;2.40;1.97;;;;;;;21.64;79.32;100842.22;5033260;28;20812;-68
2022/06/30 03:06:36;;;;;;;2.60;1.90;;;;;;;21.66;79.54;100842.66;5033012;28;20545;-67
2022/06/30 03:09:04;;;;;;;3.83;2.57;;;;;;;21.62;77.92;100836.28;5032930;28;20557;-67
2022/06/30 03:11:31;;;;;;;4.00;2.27;;;;;;;21.60;78.54;100833.91;5033372;28;20486;-67
2022/06/30 03:13:57;;;;;;;2.77;2.07;;;;;;;21.61;78.41;100840.22;5033171;28;20489;-67
2022/06/30 03:16:24;;;;;;;3.07;1.87;;;;;;;21.61;78.62;100840.22;5033277;28;20551;-66
2022/06/30 03:18:52;;;;;;;1.70;1.33;;;;;;;21.60;78.17;100831.16;5063155;22;20585;-71
2022/06/30 03:21:20;;;;;;;2.60;2.27;;;;;;;21.60;78.45;100835.84;5052890;28;20444;-70
2022/06/30 03:23:48;;;;;;;2.60;1.83;;;;;;;21.60;78.62;100838.63;5052641;28;20443;-70
2022/06/30 03:26:16;;;;;;;1.80;1.43;;;;;;;21.59;79.49;100831.50;5052986;28;20529;-70
2022/06/30 03:28:42;;;;;;;3.17;2.30;;;;;;;21.59;78.70;100824.03;5052549;28;20467;-70
2022/06/30 03:31:09;;;;;;;3.60;2.03;;;;;;;21.60;78.38;100819.31;5052893;28;20446;-70
2022/06/30 03:33:37;;;;;;;2.13;1.70;;;;;;;21.62;77.98;100817.00;5052728;28;20478;-69
2022/06/30 03:36:04;;;;;;;2.50;1.87;;;;;;;21.63;78.02;100807.56;5052824;28;20446;-70
2022/06/30 03:38:31;;;;;;;2.53;2.10;;;;;;;21.63;78.13;100805.59;5052685;28;20446;-70
2022/06/30 03:40:59;;;;;;;3.70;2.13;;;;;;;21.66;78.62;100801.31;5052789;28;20851;-70
2022/06/30 03:43:25;;;;;;;2.90;1.97;;;;;;;21.66;78.16;100802.09;5052836;28;20434;-70
2022/06/30 03:45:52;;;;;;;1.80;1.30;;;;;;;21.67;77.93;100802.91;5052428;28;21031;-70
2022/06/30 03:48:18;;;;;;;1.97;1.63;;;;;;;21.67;77.69;100802.91;5052362;28;20819;-70
2022/06/30 03:50:45;;;;;;;4.17;1.90;;;;;;;21.67;77.50;100794.63;5052660;28;20521;-70
2022/06/30 03:53:12;;;;;;;2.63;1.70;;;;;;;21.61;77.73;100798.88;5052310;28;20929;-71
2022/06/30 03:55:39;;;;;;;3.77;1.80;;;;;;;21.58;77.52;100794.09;5052682;28;20454;-71
2022/06/30 03:58:07;;;;;;;3.47;2.33;;;;;;;21.63;78.04;100794.56;5052365;28;20453;-71
2022/06/30 04:00:34;;;;;;;2.40;2.17;;;;;;;21.68;78.06;100801.72;5052536;28;20541;-71
2022/06/30 04:03:01;;;;;;;2.47;1.77;;;;;;;21.70;77.48;100796.66;5052575;28;20445;-71
2022/06/30 04:05:28;;;;;;;2.83;2.33;;;;;;;21.75;77.56;100801.84;5052600;28;20567;-70
2022/06/30 04:07:55;;;;;;;5.57;1.70;;;;;;;21.78;77.58;100806.63;5052561;28;20537;-70
2022/06/30 04:10:21;;;;;;;2.30;1.97;;;;;;;21.85;77.68;100795.66;5054626;28;20461;-76
2022/06/30 04:12:48;;;;;;;3.23;1.80;;;;;;;21.88;77.71;100797.69;5056258;28;20841;-69
2022/06/30 04:15:16;;;;;;;2.70;1.90;;;;;;;21.90;77.74;100798.09;5056212;28;20529;-69
2022/06/30 04:17:43;;;;;;;3.10;2.40;;;;;;;21.94;77.73;100797.38;5056185;28;20522;-68
2022/06/30 04:20:15;;;;;;;2.50;1.57;;;;;;;21.99;77.57;100805.31;5055615;28;21062;-68
2022/06/30 04:22:43;;;;;;;2.60;1.97;;;;;;;21.99;77.61;100797.03;5056132;28;20429;-68
2022/06/30 04:25:11;;;;;;;2.70;2.17;;;;;;;22.01;77.17;100800.22;5055943;28;20445;-68
2022/06/30 04:27:42;;;;;;;1.97;1.50;;;;;;;22.05;78.05;100803.84;5055901;28;20442;-68
2022/06/30 04:30:09;;;;;;;2.43;1.63;;;;;;;22.07;77.81;100802.28;5056117;28;20561;-68
2022/06/30 04:32:39;;;;;;;3.13;2.40;;;;;;;22.11;77.89;100800.34;5056010;28;20482;-68
2022/06/30 04:35:08;;;;;;;1.80;1.40;;;;;;;22.12;77.27;100798.44;5055879;28;20438;-68
2022/06/30 04:37:35;;;;;;;5.10;2.50;;;;;;;22.13;76.53;100800.00;5055437;28;20820;-69
2022/06/30 04:43:00;;;;;;;2.80;1.87;;;;;;;22.13;76.86;100802.78;4994245;28;20433;-74
2022/06/30 04:45:27;;;;;;;2.63;2.20;;;;;;;22.11;76.29;100805.09;4994081;28;20453;-70
2022/06/30 04:47:55;;;;;;;2.30;1.63;;;;;;;22.12;75.83;100806.69;5020487;28;20456;-70
2022/06/30 04:50:21;;;;;;;3.87;1.93;;;;;;;22.12;75.71;100803.94;5055452;28;20462;-70
2022/06/30 04:52:48;;;;;;;3.00;2.07;;;;;;;22.20;76.10;100797.34;5055072;28;20573;-71
2022/06/30 04:55:14;;;;;;;4.57;2.07;;;;;;;22.26;76.30;100798.59;5055159;28;20452;-71
2022/06/30 04:57:41;;;;;;;2.60;2.20;;;;;;;22.34;75.83;100793.97;5055366;28;20538;-73
2022/06/30 05:00:08;;;;;;;2.33;1.90;;;;;;;22.41;75.92;100789.34;5054986;28;21002;-75
2022/06/30 05:02:35;;;;;;;1.80;1.33;;;;;;;22.41;75.95;100800.38;5055290;28;20522;-69
2022/06/30 05:05:03;;;;;;;2.50;1.97;;;;;;;22.42;75.56;100790.13;5055269;28;20529;-68
2022/06/30 05:07:30;;;;;;;2.67;2.00;;;;;;;22.31;75.28;100791.94;5054901;28;20895;-70
2022/06/30 05:09:57;;;;;;;2.70;1.77;;;;;;;22.32;75.49;100790.81;5055123;28;20501;-71
2022/06/30 05:12:23;;;;;;;2.60;1.87;;;;;;;22.30;76.02;100787.59;5055084;28;20881;-72
2022/06/30 05:14:50;;;;;;;7.53;2.00;;;;;;;22.31;75.77;100786.44;5054815;28;20449;-72
2022/06/30 05:17:17;;;;;;;3.57;2.27;;;;;;;22.26;76.04;100784.81;5054920;28;20481;-72
2022/06/30 05:19:43;;;;;;;5.40;2.10;;;;;;;22.25;76.41;100783.22;5054428;28;20481;-71
2022/06/30 05:22:11;;;;;;;2.33;1.90;;;;;;;22.29;76.33;100786.81;5054562;28;20445;-72
2022/06/30 05:27:22;;;;;;;2.80;1.90;;;;;;;22.39;75.85;100774.31;5054898;28;20468;-71
2022/06/30 05:29:49;;;;;;;2.20;1.63;;;;;;;22.49;75.56;100784.69;5054470;28;20458;-72
2022/06/30 05:32:15;;;;;;;1.90;1.63;;;;;;;22.52;76.24;100777.59;5054777;28;20442;-72
2022/06/30 05:34:42;;;;;;;2.70;2.33;;;;;;;22.56;75.34;100784.75;5054657;28;20485;-72
2022/06/30 05:37:08;;;;;;;2.57;1.90;;;;;;;22.63;75.41;100784.06;5054377;28;21030;-72
2022/06/30 05:39:37;;;;;;;2.30;1.60;;;;;;;22.64;74.79;100782.88;5054468;28;20466;-72
2022/06/30 05:42:04;;;;;;;3.63;1.77;;;;;;;22.71;75.16;100784.91;5054528;28;20532;-72
2022/06/30 05:44:32;;;;;;;5.57;2.30;;;;;;;22.75;74.41;100791.25;5054226;28;20513;-72
2022/06/30 05:46:59;;;;;;;2.40;2.20;;;;;;;22.71;74.12;100793.19;5054623;28;20446;-72
2022/06/30 05:49:26;;;;;;;2.43;2.13;;;;;;;22.74;75.06;100793.25;5054354;28;20891;-72
2022/06/30 05:51:53;;;;;;;3.43;2.40;;;;;;;22.74;74.55;100801.53;5054348;28;20450;-72
2022/06/30 05:54:20;;;;;;;3.10;2.33;;;;;;;22.78;74.32;100791.31;5053973;28;20484;-72
2022/06/30 05:56:48;;;;;;;4.43;1.70;;;;;;;22.83;75.02;100793.72;5054278;28;20448;-72
2022/06/30 05:59:14;;;;;;;2.67;1.73;;;;;;;22.86;75.58;100792.97;5054185;28;20466;-72
2022/06/30 06:01:41;;;;;;;1.90;1.70;;;;;;;22.92;74.47;100793.44;5053809;28;20503;-72
2022/06/30 06:04:08;;;;;;;4.03;2.63;;;;;;;22.80;72.83;100791.75;5053535;28;20935;-72
2022/06/30 06:06:34;;;;;;;3.47;2.07;;;;;;;22.80;72.31;100794.50;5053757;28;20435;-72
2022/06/30 06:09:01;;;;;;;2.30;1.87;;;;;;;22.76;73.91;100793.66;5053841;28;20464;-72
2022/06/30 06:11:28;;;;;;;3.10;2.13;;;;;;;22.84;74.32;100798.09;5054176;28;20550;-72
2022/06/30 06:13:55;;;;;;;2.93;1.80;;;;;;;22.91;74.34;100797.38;5053892;28;20478;-72
2022/06/30 06:16:22;;;;;;;3.80;2.50;;;;;;;23.01;74.59;100804.19;5053929;28;20446;-72
2022/06/30 06:18:49;;;;;;;2.60;1.80;;;;;;;23.08;74.51;100810.59;5053585;28;20486;-72
2022/06/30 06:21:16;;;;;;;5.03;2.20;;;;;;;23.09;73.53;100803.09;5053856;28;20518;-72
2022/06/30 06:23:43;;;;;;;5.27;2.00;;;;;;;23.13;73.64;100812.19;5053816;28;20438;-72
2022/06/30 06:26:09;;;;;;;5.43;2.17;;;;;;;23.18;74.72;100814.63;5053405;28;21023;-72
2022/06/30 06:31:21;;;;;;;2.10;1.73;;;;;;;23.24;74.04;100818.63;5053430;28;20963;-72
2022/06/30 06:33:48;;;;;;;2.90;1.93;;;;;;;23.27;74.44;100825.34;5052976;28;20488;-72
2022/06/30 06:36:15;;;;;;;3.63;1.77;;;;;;;23.15;74.11;100831.94;5053598;28;20836;-72
2022/06/30 06:38:41;;;;;;;2.53;1.90;;;;;;;23.14;73.78;100830.38;5053166;28;20537;-72
2022/06/30 06:41:08;;;;;;;3.60;2.50;;;;;;;23.01;74.14;100821.56;5053091;28;20542;-71
2022/06/30 06:43:35;;;;;;;2.50;1.60;;;;;;;23.10;74.04;100832.28;5053348;28;20442;-72
2022/06/30 06:46:01;;;;;;;2.23;1.67;;;;;;;23.14;74.01;100833.13;5053442;28;20533;-72
2022/06/30 06:48:30;;;;;;;2.60;1.90;;;;;;;23.27;74.29;100828.13;5053371;28;20446;-72
2022/06/30 06:50:56;;;;;;;7.87;2.40;;;;;;;23.31;73.49;100817.88;5053294;28;20883;-72
2022/06/30 06:53:23;;;;;;;2.30;2.00;;;;;;;23.49;73.66;100815.25;5053222;28;20488;-72
2022/06/30 06:55:49;;;;;;;2.60;1.77;;;;;;;23.62;72.83;100816.53;5053253;28;20450;-72
2022/06/30 06:58:16;;;;;;;5.80;2.07;;;;;;;23.69;71.88;100821.38;5053177;28;20528;-72
2022/06/30 07:00:43;;;;;;;2.60;2.00;;;;;;;23.81;72.88;100824.59;5052893;28;20449;-71
2022/06/30 07:03:09;;;;;;;2.50;1.73;;;;;;;23.95;72.88;100818.38;5053171;28;20438;-72
2022/06/30 07:05:37;;;;;;;9.03;1.93;;;;;;;24.05;71.48;100819.63;5053133;28;20540;-72
2022/06/30 07:08:04;;;;;;;6.57;2.70;;;;;;;24.08;72.59;100816.88;5053043;28;20529;-72
2022/06/30 07:10:31;;;;;;;2.20;2.00;;;;;;;24.14;72.39;100820.84;5052889;28;20541;-71
2022/06/30 07:12:57;;;;;;;2.80;1.70;;;;;;;24.16;71.37;100820.44;5053073;28;20456;-72
2022/06/30 07:15:24;;;;;;;2.60;1.87;;;;;;;24.23;72.18;100820.50;5052994;28;20994;-72
2022/06/30 07:17:51;;;;;;;5.40;2.10;;;;;;;24.29;72.53;100821.69;5053011;28;20438;-72
2022/06/30 07:20:17;;;;;;;2.77;1.80;;;;;;;24.34;71.04;100823.31;5052665;28;20531;-72
2022/06/30 07:22:45;;;;;;;2.23;2.03;;;;;;;24.34;71.82;100821.31;5052924;28;20529;-72
2022/06/30 07:25:12;;;;;;;2.77;2.30;;;;;;;24.31;71.63;100819.34;5052637;28;20821;-72
2022/06/30 07:27:39;;;;;;;2.37;2.00;;;;;;;24.38;70.37;100830.47;5052926;28;20549;-72
2022/06/30 07:30:06;;;;;;;5.47;2.10;;;;;;;24.41;70.77;100834.44;5052945;28;20942;-72
2022/06/30 07:32:33;;;;;;;2.30;1.80;;;;;;;24.44;71.15;100835.63;5052597;28;20947;-72
2022/06/30 07:35:00;;;;;;;4.13;2.03;;;;;;;24.40;71.53;100843.94;5052871;28;20485;-72
2022/06/30 07:37:26;;;;;;;5.53;2.73;;;;;;;24.40;71.82;100852.25;5052554;28;20628;-72
2022/06/30 07:39:54;;;;;;;4.30;2.30;;;;;;;24.50;72.19;100847.94;5052804;28;20896;-72
2022/06/30 07:42:21;;;;;;;3.50;2.20;;;;;;;24.64;71.73;100851.53;5052784;28;20533;-72
2022/06/30 07:44:48;;;;;;;5.17;2.40;;;;;;;24.77;71.75;100849.22;5055419;28;21074;-72
2022/06/30 07:47:14;;;;;;;2.60;2.40;;;;;;;24.86;70.65;100838.53;5056743;28;20533;-72
2022/06/30 07:49:41;;;;;;;4.70;2.30;;;;;;;24.85;71.41;100836.97;5056315;28;20462;-72
2022/06/30 07:52:08;;;;;;;3.60;2.53;;;;;;;24.83;69.94;100833.00;5056597;28;20508;-72
2022/06/30 07:54:35;;;;;;;2.57;2.20;;;;;;;24.79;71.05;100835.78;5056530;28;20573;-72
2022/06/30 07:57:03;;;;;;;2.90;1.90;;;;;;;24.67;71.32;100825.84;5056601;28;20820;-72
2022/06/30 07:59:29;;;;;;;2.90;1.90;;;;;;;24.67;71.42;100827.81;5056428;28;20457;-72
2022/06/30 08:01:56;;;;;;;9.43;2.23;;;;;;;24.62;72.51;100820.69;5056429;28;20469;-72
2022/06/30 08:04:22;;;;;;;7.00;3.00;;;;;;;24.54;72.08;100810.75;5056191;28;20812;-71
2022/06/30 08:06:49;;;;;;;1.87;1.67;;;;;;;24.61;73.29;100804.44;5056123;28;20832;-72
2022/06/30 08:09:16;;;;;;;4.90;2.47;;;;;;;24.54;72.31;100809.97;5056510;28;20502;-72
2022/06/30 08:11:42;;;;;;;3.30;2.40;;;;;;;24.47;71.95;100807.16;5055997;28;20979;-72
2022/06/30 08:14:10;;;;;;;2.90;2.30;;;;;;;24.39;71.92;100809.94;5056151;28;20522;-72
2022/06/30 08:16:37;;;;;;;4.13;2.90;;;;;;;24.30;72.23;100806.66;5056233;28;20489;-72
2022/06/30 08:19:04;;;;;;;2.60;2.03;;;;;;;24.25;73.26;100801.50;5055790;28;21013;-72
2022/06/30 08:21:30;;;;;;;6.37;2.53;;;;;;;24.31;73.88;100801.94;5055817;28;20442;-72
2022/06/30 08:23:57;;;;;;;3.93;2.60;;;;;;;24.22;73.14;100794.00;5055770;28;20888;-73
2022/06/30 08:26:24;;;;;;;3.30;2.40;;;;;;;24.26;74.07;100794.00;5056035;28;20445;-71
2022/06/30 08:28:50;;;;;;;2.83;2.30;;;;;;;24.25;74.94;100798.75;5055652;28;20458;-72
2022/06/30 08:31:18;;;;;;;6.10;2.40;;;;;;;24.35;74.40;100798.00;5055953;28;20555;-71
2022/06/30 08:33:45;;;;;;;2.37;2.10;;;;;;;24.44;74.67;100796.84;5055566;28;20565;-71
2022/06/30 08:36:11;;;;;;;3.03;2.00;;;;;;;24.52;74.16;100788.19;5055820;28;20532;-73
2022/06/30 08:38:38;;;;;;;3.93;2.27;;;;;;;24.34;72.61;100801.94;5055395;28;20984;-75
2022/06/30 08:43:49;;;;;;;7.90;2.53;;;;;;;24.41;73.24;100790.94;5055848;28;20430;-72
2022/06/30 08:46:19;;;;;;;3.17;2.73;;;;;;;24.36;72.27;100796.81;5055697;28;20521;-72
2022/06/30 08:48:45;;;;;;;4.57;2.53;;;;;;;24.34;74.07;100792.84;5055556;28;20550;-72
2022/06/30 08:51:14;;;;;;;3.87;2.90;;;;;;;24.29;74.95;100782.94;5055583;28;20540;-71
2022/06/30 08:53:47;;;;;;;2.57;2.30;;;;;;;24.34;75.72;100795.63;5055442;28;20513;-72
2022/06/30 08:56:14;;;;;;;2.83;2.10;;;;;;;24.42;74.90;100792.50;5054400;28;20430;-72
2022/06/30 08:58:42;;;;;;;4.33;3.03;;;;;;;24.53;75.79;100800.88;5055349;28;20541;-72
2022/06/30 09:01:09;;;;;;;3.23;2.43;;;;;;;24.59;74.76;100798.50;5055377;28;20477;-72
2022/06/30 09:03:38;;;;;;;3.87;2.30;;;;;;;24.68;74.77;100801.69;5055364;28;20445;-72
2022/06/30 09:06:05;;;;;;;2.27;2.07;;;;;;;24.74;74.02;100797.34;5055308;28;20533;-72
2022/06/30 09:08:32;;;;;;;3.23;2.47;;;;;;;24.85;74.43;100795.41;5054881;28;20442;-72
2022/06/30 09:10:59;;;;;;;4.63;2.70;;;;;;;25.00;73.46;100806.50;5055133;28;20817;-72
2022/06/30 09:13:26;;;;;;;3.77;2.30;;;;;;;25.07;71.82;100792.66;5054891;28;20450;-72
2022/06/30 09:15:53;;;;;;;3.10;2.10;;;;;;;25.04;72.24;100793.44;5055084;28;20478;-72
2022/06/30 09:18:24;;;;;;;3.47;2.33;;;;;;;24.96;73.40;100797.38;5054562;28;20526;-72
2022/06/30 09:20:54;;;;;;;3.33;2.40;;;;;;;25.07;73.05;100798.19;5054749;28;20975;-72
2022/06/30 09:23:22;;;;;;;2.63;2.00;;;;;;;25.26;71.99;100791.50;5054975;28;20488;-72
2022/06/30 09:25:51;;;;;;;3.90;2.47;;;;;;;25.42;70.65;100789.13;5054932;28;20486;-73
2022/06/30 09:28:42;;;;;;;3.53;2.27;;;;;;;25.51;71.44;100788.72;5054881;28;20480;-72
2022/06/30 09:31:08;;;;;;;4.03;2.57;;;;;;;25.60;70.05;100780.78;5055188;28;20427;-72
2022/06/30 09:33:36;;;;;;;3.00;2.47;;;;;;;25.78;71.15;100781.56;5054433;28;20958;-72
2022/06/30 09:36:25;;;;;;;4.90;3.73;;;;;;;25.88;67.98;100788.25;5054826;28;20441;-72
2022/06/30 09:39:05;;;;;;;3.57;2.60;;;;;;;25.96;70.24;100789.03;5054322;28;20462;-72
2022/06/30 09:41:35;;;;;;;3.47;2.50;;;;;;;25.94;68.56;100785.88;5054287;28;20485;-72
2022/06/30 09:44:08;;;;;;;2.87;2.33;;;;;;;26.10;69.58;100789.00;5054306;28;20891;-72
2022/06/30 09:46:36;;;;;;;3.57;2.30;;;;;;;26.17;69.79;100794.53;5054381;28;20415;-72
2022/06/30 09:49:04;;;;;;;3.10;2.40;;;;;;;26.19;70.01;100794.91;5054138;28;20520;-72
2022/06/30 09:51:32;;;;;;;4.33;2.97;;;;;;;26.19;69.50;100806.00;5054119;28;20527;-72
2022/06/30 09:54:06;;;;;;;4.97;2.77;;;;;;;26.30;67.55;100800.44;5054219;28;20439;-72
2022/06/30 09:56:33;;;;;;;2.33;1.90;;;;;;;26.31;68.30;100805.56;5054361;28;20473;-72
2022/06/30 09:59:00;;;;;;;5.20;2.40;;;;;;;26.46;68.01;100798.00;5054208;28;20466;-72
2022/06/30 10:01:28;;;;;;;3.53;2.53;;;;;;;26.43;65.96;100793.22;5053983;28;20524;-72
2022/06/30 10:03:59;;;;;;;5.50;2.30;;;;;;;26.44;67.94;100794.03;5053936;28;20440;-72
2022/06/30 10:06:27;;;;;;;3.30;2.67;;;;;;;26.40;67.08;100794.81;5053703;28;20447;-72
2022/06/30 10:08:57;;;;;;;3.70;2.63;;;;;;;26.60;70.42;100797.13;5053537;28;20859;-72
2022/06/30 10:11:24;;;;;;;2.60;2.10;;;;;;;26.29;67.68;100799.63;5053713;28;20979;-72
2022/06/30 10:13:52;;;;;;;3.43;1.90;;;;;;;26.44;67.10;100792.06;5053602;28;20954;-73
2022/06/30 10:16:21;;;;;;;3.30;2.53;;;;;;;26.57;66.68;100790.41;5053650;28;20835;-72
2022/06/30 10:18:49;;;;;;;2.77;2.40;;;;;;;26.68;67.12;100787.53;5053685;28;20474;-72
2022/06/30 10:21:16;;;;;;;2.20;1.67;;;;;;;26.73;67.44;100783.53;5053762;28;21025;-72
2022/06/30 10:23:44;;;;;;;2.10;1.80;;;;;;;26.85;66.34;100783.84;5053850;28;20438;-72
2022/06/30 10:27:12;;;;;;;3.40;2.40;;;;;;;27.08;67.42;100783.28;5053693;28;20438;-72
2022/06/30 10:28:59;;;;;;;3.90;2.30;;;;;;;27.39;66.13;100792.59;5053237;28;20458;-72
2022/06/30 10:31:34;;;;;;;2.53;2.33;;;;;;;27.61;64.91;100792.41;5053414;28;20438;-72
2022/06/30 10:34:08;;;;;;;2.40;2.10;;;;;;;27.81;63.38;100790.63;5053374;28;20432;-72
2022/06/30 10:36:44;;;;;;;3.73;2.40;;;;;;;27.98;62.66;100796.41;5053671;28;20728;-72
2022/06/30 10:39:19;;;;;;;6.77;2.60;;;;;;;28.01;60.99;100788.00;5053512;28;20915;-72
2022/06/30 10:41:48;;;;;;;2.57;2.37;;;;;;;27.98;62.09;100776.91;5053793;28;20414;-72
2022/06/30 10:44:22;;;;;;;2.20;2.00;;;;;;;27.94;61.77;100784.53;5053503;28;20544;-72
2022/06/30 10:47:09;;;;;;;2.17;1.97;;;;;;;27.94;61.79;100781.75;5053505;28;20454;-72
2022/06/30 10:49:55;;;;;;;4.90;2.60;;;;;;;28.08;60.70;100785.16;5053286;28;20456;-72
2022/06/30 10:52:25;;;;;;;2.80;2.20;;;;;;;28.21;62.00;100788.19;5053407;28;20426;-72
2022/06/30 10:55:01;;;;;;;2.70;2.50;;;;;;;28.36;59.59;100789.59;5052958;28;20528;-72
2022/06/30 10:58:02;;;;;;;2.33;2.13;;;;;;;28.46;59.05;100779.50;5053393;28;20521;-72
2022/06/30 11:00:49;;;;;;;3.33;2.37;;;;;;;28.38;59.67;100778.03;5053136;28;20884;-72
2022/06/30 11:03:49;;;;;;;6.20;3.10;;;;;;;28.43;61.19;100771.22;5052968;28;20517;-72
2022/06/30 11:06:16;;;;;;;3.30;2.43;;;;;;;28.39;61.20;100763.69;5049934;28;20893;-72
2022/06/30 11:08:48;;;;;;;2.87;2.30;;;;;;;28.50;59.43;100771.88;5052789;28;20553;-69
2022/06/30 11:11:42;;;;;;;2.80;2.50;;;;;;;28.73;59.12;100762.81;5054539;28;20453;-69
2022/06/30 11:14:26;;;;;;;2.90;2.10;;;;;;;29.21;59.61;100772.81;5052949;28;20437;-69
2022/06/30 11:16:53;;;;;;;3.83;1.87;;;;;;;29.15;56.60;100774.50;5053088;28;20437;-68
2022/06/30 11:19:25;;;;;;;2.13;1.87;;;;;;;29.13;56.65;100762.97;5052512;28;20480;-68
2022/06/30 11:21:54;;;;;;;3.40;2.10;;;;;;;29.13;57.57;100765.75;5053035;28;20418;-69
2022/06/30 11:24:23;;;;;;;2.63;2.23;;;;;;;29.14;58.15;100761.78;5053072;28;20496;-69
2022/06/30 11:29:36;;;;;;;4.57;2.33;;;;;;;29.10;58.17;100764.63;5052725;28;20444;-68
2022/06/30 11:32:04;;;;;;;2.73;1.90;;;;;;;29.21;57.67;100763.66;5052642;28;20448;-69
2022/06/30 11:34:36;;;;;;;2.30;2.07;;;;;;;29.20;56.69;100760.06;5052792;28;20444;-69
2022/06/30 11:37:03;;;;;;;4.13;2.43;;;;;;;29.34;57.22;100764.63;5052952;28;20441;-69
2022/06/30 11:39:29;;;;;;;3.00;2.27;;;;;;;29.02;56.78;100759.59;5052515;28;20926;-69
2022/06/30 11:41:56;;;;;;;3.90;2.23;;;;;;;29.24;58.56;100752.44;5052824;28;20448;-69
2022/06/30 11:44:25;;;;;;;2.33;2.13;;;;;;;29.79;58.06;100755.81;5052555;28;20943;-69
2022/06/30 11:46:55;;;;;;;2.17;1.97;;;;;;;30.11;55.60;100755.97;5052806;28;20442;-69
2022/06/30 11:49:23;;;;;;;2.87;2.30;;;;;;;30.17;54.75;100752.69;5052470;28;21018;-69